Timeline UpdatesTrip UpdatesNews PostsPvt PostsTravel TipsAdmin PostsConv PostsFollowed PostsChat RequestsBlog PostsPNR Posts

Disclaimer
Search
 
 
Sat Sep 20, 2014 21:30:04 ISTHomeTrainsΣChainsAtlasPNRForumGalleryNewsFAQTripsMembersLoginFeedback
No Recent News for this Train
Other Trains in the News **new
Latest...
Shall run from BNW on 17th March, 2011. News Post# 19412
Wed Mar 16, 2011 (09:33PM)
⇐ Return Journey: Train# 54784

54783/Fazilka Rewari Passenger (UnReserved)

Time-Table HAS CHANGED.
Sep 03 (10:32AM)
Change Departure Station:
Change Arrival Station:
Post a Train Travel TipPost a Train Travel Tip **new
Post a Comment/Question/Picture/VideoPost a Comment/Question/Picture/Video
Pantry/Catering
???
RSA - Rake Sharing
Rake/Coach Composition
Loco
News    PNR    Forum    Time-Table    Availability    Fare Chart    Map    Arr/Dep History    Trips    Gallery    ΣChains    X/O    Timeline    
Travel Time: 10h 44m    51 halts    Distance: 374 km    Avg Speed: 34 km/hr
Type: Passenger
Zone: NWR/North Western
Departs @ 08:35
Platform# ???
SMTWTFS
Fazilka Junction/FKA 
Arrives @ 19:19
Platform# 1
SMTWTFS
Patuwas Mehrana/PUW 

51 halts. 51 intermediate Stations between Fazilka Junction and Patuwas Mehrana

Show ALL intermediate Stations  Show Old Time-Table

#CodeStation NameX/OArrivesAvgDepartsAvgHaltPFDay#KmSpeedElevZoneAddress
1FKAFazilka Junction (2)»  -08:35---10.076181mNRFazilka, Punjab
2CKLAChak Banwala  08:45-08:46-1m--112.741182mNRChimne Wala, Punjab
3CKAChak Pakhewala  08:52-08:53-1m--116.738183mNRChimne Wala, Punjab
4RRWRoranwala  09:02-09:03-1m--122.451188mNRJandwala Bhimeshah, Punjab
5LKWLakhewali (1)X  09:11 09:13-09:13 09:15-2m1130.920194mNRCourt Rd, Punjab
6BSGRBhagsar  09:21 09:31-09:22 09:32-1m--136.349197mNRRamgarh Chungha, Punjab
7BDBGBadhai Balamgarh Halt  09:27 09:38-09:28 09:39-1m--141.244200mNRBadhai Balamgarh, Punjab
8MKSMuktsar  09:36 09:48-09:38 09:50-2m1147.845199mNRMuktsar, Punjab
9CWNCharawan  09:47 09:59-09:48 10:00-1m--154.634201mNRState Highway 16, Punjab
10JBWJhabelwali  09:52 10:04-09:53 10:05-1m--156.956201mNRState Highway 16, Punjab
11BRWBariwala  09:59 10:11-10:01 10:13-2m--162.452206mNRMandi Bariwala, Punjab
12WDJWanderjatana  10:11 10:23-10:12 10:24-1m--171.121203mNRState Highway 16, Punjab
13KKPKot Kapura Junction (3)  10:28 10:50-10:30 10:53-2 3m1180.1610mNRKotkapura, Punjab
14RLSRomana Albel Singh (1)X  10:38 11:01-10:40 11:03-2m1188.316208mNRKotkapura Jaitu Rd, Punjab
15AJTMAjitgill Matta (1)  10:46 11:16-10:47 11:17-1m1191.771209mNRKotkapura Jaitu Rd, Punjab
16GJUTGangsar Jaitu (3)  10:53 11:21-10:55 11:23-2m--196.451207mNRJaitu, Punjab
17CBXChand Bhan  11:06 11:31-11:08 11:32-2 1m--1103.156211mNRJaitu, Punjab
18GNAGoneana Bhai Jagta (3)  11:16 11:40-11:18 11:42-2m--1110.526206mNRGoniana, Punjab
19BTIBathinda Junction (6)X  11:55 12:10-12:40-45 30m--1122.860208mNRBathinda, Punjab
20GHBGahri Bhagi  12:54-12:55-1m--1136.917205mNWRGahri Bhagi, Punjab
21SGAShergarh  13:02-13:03-1m--1138.931205mNWRBathinda, Punjab
22MKBHManwala Kot Bak  13:09-13:10-1m--1141.943208mNWRManwala Kot Bak, Punjab
23BNLSBangi Nihalsingh  13:15-13:16-1m--1145.552207mNWRBangi Nihalsingh, Punjab
24RMNRaman  13:22-13:23-1m--1150.744204mNWRRama Mandi, Punjab
25RKKRatangarh Kanakwal  13:31-13:32-1m--1156.649205mNWRRatangarh Kanakwal, Punjab
26KNLKalanwali  13:42-13:43-1m--1164.844206mNWRKalanwali, Haryana
27SCVSukhchain  13:53-13:54-1m--1172.159206mNWRSukhchain, Haryana
28BGDBara Gudah  14:02-14:03-1m--1180.164204mNWRBara Gudha, Haryana
29SSASirsaX  14:25 14:20-14:40 14:30-15 10m--1198.347203mNWRSirsa, Haryana
30BJKNBajekan  14:47 14:36-14:48 14:38-1 2m--1203.067203mNWRBajekan, Haryana
31SHNSuchan Kotli  14:57 14:47-14:58 14:48-1m--1213.043205mNWRSuchan, Haryana
32JOKJodhka  15:04 14:54-15:05 14:55-1m--1217.353205mNWRSirsa, Haryana
33DINGDing  15:12 15:01-15:13 15:03-1 2m--1222.652206mNWRSirsa, Haryana
34MHULMehuwala Halt  15:22 15:12-15:23 15:13-1m--1230.443210mNWRMehuwala Halt, Haryana
35BHTBhattu  15:29 15:18-15:30 15:20-1 2m--1234.056212mNWRBhattu Kalan, Haryana
36KBKNKhabra Kalan  15:38 15:27-15:39 15:29-1 2m--1240.572216mNWRKhabra Kalan, Haryana
37ADRMandi Adampur  15:49 15:38-15:50 15:40-1 2m--1251.359210mNWRHisar, Haryana
38JKHIJakhod Khera  16:03 15:53-16:04 15:54-1m--1264.153211mNWRJakhodlkhera, Haryana
39NKNNyoli Kalan  16:12 16:01-16:13 16:02-1m--1270.245213mNWRNyoli Kalan, Haryana
40HSRHisar Junction (6)X  16:25 16:15-17:10 17:00-45m--1280.163215mNWRHisar, Haryana
41STDSatrod  17:21 17:10-17:22 17:12-1 2m--1290.635215mNWRHisar, Haryana
42MAYRMayarX  17:29 17:19-17:30 17:20-1m--1294.763216mNWRMayar, Haryana
43HNSHansi (1)  17:39 17:28-17:40 17:30-1 2m11303.238217mNWRHissar, Haryana
44AUNAurang Nagar  17:49 17:39-17:50 17:40-1m--1309.063216mNWRAurang Nagar, Haryana
45JKZJitakheri  17:55 17:44-17:56 17:46-1 2m--1313.241217mNWRBhiwani, Haryana
46BWKBawani KheraX  18:06 17:59-18:08 18:00-2 1m--1322.135215mNWRBawani Khera, Haryana
47SUISui  18:17 18:09-18:18 18:10-1m--1327.438216mNWRBhiwani, Haryana
48BNWBhiwani Junction (3)  18:45 18:30-18:55 18:35-10 5m--1340.150216mNWRBhiwani, Haryana
49DZLDhana Ladanpur (1)  19:02 18:42-19:03 18:43-1m11345.958219mNWRDhana Ladanpur, Haryana
50MHUManheru (1)  19:10 18:51-19:11 18:52-1m11353.750216mNWRBhiwani, Haryana
51FGHFatehgarh Haryana (1)X  19:20 19:00-19:21 19:01-1m11360.456217mNWRFatehgarh, Haryana
52CKDCharkhi Dadri (1)  19:28 19:08-19:30 19:10-2m11367.049217mNWRDist. Bhiwani, Haryana
53PUWPatuwas Mehrana (1)•  19:39 19:19-19:40 19:20-1m11374.352226mNWRMehrana, Haryana
54JRLJharili (1)  19:46 19:28-19:47 19:29-1m11381.360234mNWRJhajjar, Haryana
55SDRASudharana (1)X  19:57 19:37-19:58 19:39-1 2m11389.449230mNWRSudharana, Haryana
56KSIKosli (1)  20:05 19:46-20:06 19:48-1 2m11395.145236mNWRTumna Rd, Haryana
57NLQNangal Pathani Halt (1)  20:13 19:56-20:14 19:57-1m11401.152231mNWRNangal Pathani, Haryana
58JTSJatusana (1)  20:19 20:02-20:20 20:04-1 2m11405.561243mNWRNanagal Pathani Rd, Haryana
59KGBSKishangarh Balawas (1)  20:30 20:13-20:31 20:15-1 2m11414.614240mNWRKishengarh, Haryana
60RERewari Junction (8)  21:10 20:50--81423.0-245mNWRRewari, Haryana
Scroll to Top
Scroll to Bottom